Time;durP1;ratioP1;P1;durP2;ratioP2;P2;SDS_P1;SDS_P2;PMS_P1;PMS_P2;Temp;Humidity;BMP_temperature;BMP_pressure;BME280_temperature;BME280_humidity;BME280_pressure;Samples;Min_cycle;Max_cycle;Signal;HPM_P1;HPM_P2
2023/01/01 00:00:33;;;;;;;;;;;;;;;16.58;53.31;99869.44;10254469;29;20388;-74
2023/01/01 00:05:37;;;;;;;;;;;;;;;16.45;53.76;99868.47;10253389;29;20384;-74
2023/01/01 00:10:38;;;;;;;;;;;;;;;16.48;53.47;99870.09;10253375;29;19922;-74
2023/01/01 00:15:40;;;;;;;;;;;;;;;16.57;53.42;99869.56;10254618;28;19969;-75
2023/01/01 00:20:41;;;;;;;;;;;;;;;16.29;54.36;99859.69;10255050;29;20347;-74
2023/01/01 00:25:43;;;;;;;;;;;;;;;16.43;53.75;99866.88;10254268;29;20404;-75
2023/01/01 00:30:45;;;;;;;;;;;;;;;16.29;54.01;99860.56;10253896;29;19973;-75
2023/01/01 00:35:46;;;;;;;;;;;;;;;16.31;54.09;99863.13;10255046;29;19922;-74
2023/01/01 00:40:48;;;;;;;;;;;;;;;16.45;53.38;99873.78;10251918;29;19947;-74
2023/01/01 00:45:52;;;;;;;;;;;;;;;16.47;52.85;99885.16;10252654;29;19929;-74
2023/01/01 00:50:54;;;;;;;;;;;;;;;16.40;52.85;99875.84;10252427;29;19923;-74
2023/01/01 00:55:56;;;;;;;;;;;;;;;16.40;52.41;99878.50;10253867;29;19922;-74
2023/01/01 01:00:57;;;;;;;;;;;;;;;16.11;53.19;99875.75;10253472;29;20285;-73
2023/01/01 01:06:02;;;;;;;;;;;;;;;16.14;53.25;99888.81;10253457;29;19946;-75
2023/01/01 01:11:08;;;;;;;;;;;;;;;16.16;52.49;99894.03;10252052;29;19961;-74
2023/01/01 01:16:11;;;;;;;;;;;;;;;16.25;52.68;99905.91;10253324;29;20341;-74
2023/01/01 01:21:15;;;;;;;;;;;;;;;16.15;52.07;99917.03;10252203;29;19954;-74
2023/01/01 01:26:18;;;;;;;;;;;;;;;16.28;51.34;99921.63;10255557;28;19929;-74
2023/01/01 01:31:20;;;;;;;;;;;;;;;16.14;51.85;99927.72;10258492;29;19929;-74
2023/01/01 01:36:23;;;;;;;;;;;;;;;15.96;52.05;99926.13;10259866;29;20277;-74
2023/01/01 01:41:25;;;;;;;;;;;;;;;15.88;52.04;99937.13;10258999;29;19922;-74
2023/01/01 01:46:29;;;;;;;;;;;;;;;15.62;53.00;99935.88;10260129;29;20029;-74
2023/01/01 01:51:33;;;;;;;;;;;;;;;15.50;53.37;99942.69;10261207;29;19922;-73
2023/01/01 01:56:44;;;;;;;;;;;;;;;15.35;54.42;99947.00;10258480;29;19922;-73
2023/01/01 02:01:46;;;;;;;;;;;;;;;15.23;54.44;99941.50;10259831;29;20035;-73
2023/01/01 02:06:49;;;;;;;;;;;;;;;15.19;54.93;99935.53;10258153;29;20017;-73
2023/01/01 02:11:50;;;;;;;;;;;;;;;15.05;55.35;99938.91;10259042;29;19929;-74
2023/01/01 02:16:55;;;;;;;;;;;;;;;15.17;54.83;99939.19;10258536;29;19923;-73
2023/01/01 02:22:20;;;;;;;;;;;;;;;14.99;55.31;99938.34;10259059;29;19970;-73
2023/01/01 02:27:21;;;;;;;;;;;;;;;14.97;55.43;99932.28;10253565;29;19930;-73
2023/01/01 02:32:26;;;;;;;;;;;;;;;14.94;55.06;99935.94;10257471;29;19934;-73
2023/01/01 02:37:28;;;;;;;;;;;;;;;15.10;54.77;99930.72;10258296;28;19922;-73
2023/01/01 02:42:30;;;;;;;;;;;;;;;15.13;54.71;99935.81;10256664;29;20345;-74
2023/01/01 02:47:31;;;;;;;;;;;;;;;15.01;54.90;99933.84;10257458;29;19930;-72
2023/01/01 02:52:39;;;;;;;;;;;;;;;15.04;54.53;99936.31;10256139;29;19934;-73
2023/01/01 02:57:44;;;;;;;;;;;;;;;14.92;55.14;99929.00;10258234;29;19926;-73
2023/01/01 03:03:05;;;;;;;;;;;;;;;14.95;54.82;99935.00;10256565;29;19929;-73
2023/01/01 03:08:13;;;;;;;;;;;;;;;14.89;54.49;99933.53;10240468;29;20013;-73
2023/01/01 03:13:17;;;;;;;;;;;;;;;14.91;54.22;99944.00;10256904;29;19930;-73
2023/01/01 03:18:22;;;;;;;;;;;;;;;15.22;52.85;99931.84;10256636;28;20389;-72
2023/01/01 03:23:26;;;;;;;;;;;;;;;14.85;53.98;99925.81;10256299;29;20407;-73
2023/01/01 03:28:31;;;;;;;;;;;;;;;14.73;54.47;99937.88;10256480;28;19972;-73
2023/01/01 03:33:39;;;;;;;;;;;;;;;14.66;54.28;99938.28;10255841;29;19965;-72
2023/01/01 03:38:40;;;;;;;;;;;;;;;14.90;53.01;99931.72;10256342;29;19929;-73
2023/01/01 03:44:01;;;;;;;;;;;;;;;14.45;54.15;99941.00;10257256;29;19949;-73
2023/01/01 03:49:04;;;;;;;;;;;;;;;14.47;54.09;99933.00;10268756;23;19922;-75
2023/01/01 03:54:12;;;;;;;;;;;;;;;14.70;53.19;99938.03;10255727;29;20395;-75
2023/01/01 03:59:17;;;;;;;;;;;;;;;14.44;53.78;99935.81;10256524;29;20392;-75
2023/01/01 04:04:19;;;;;;;;;;;;;;;14.43;53.54;99939.34;10253674;29;19985;-75
2023/01/01 04:09:24;;;;;;;;;;;;;;;14.53;53.10;99940.66;10257485;29;20303;-75
2023/01/01 04:14:46;;;;;;;;;;;;;;;14.58;53.08;99933.34;10257770;29;19945;-75
2023/01/01 04:19:47;;;;;;;;;;;;;;;14.51;52.68;99939.88;10258316;29;19989;-76
2023/01/01 04:24:55;;;;;;;;;;;;;;;14.52;52.59;99942.47;10256570;29;20025;-75
2023/01/01 04:29:57;;;;;;;;;;;;;;;14.60;52.15;99947.34;10255089;29;19922;-75
2023/01/01 04:34:59;;;;;;;;;;;;;;;14.58;52.27;99952.72;10255092;29;20376;-74
2023/01/01 04:40:01;;;;;;;;;;;;;;;14.54;52.04;99959.09;10254364;29;19930;-75
2023/01/01 04:45:03;;;;;;;;;;;;;;;14.57;52.11;99961.59;10254554;29;19922;-75
2023/01/01 04:50:04;;;;;;;;;;;;;;;14.65;51.21;99961.19;10253730;29;19922;-75
2023/01/01 04:55:06;;;;;;;;;;;;;;;14.53;51.48;99962.69;10254396;29;20411;-75
2023/01/01 05:00:09;;;;;;;;;;;;;;;14.76;50.14;99963.31;10259527;28;19923;-75
2023/01/01 05:05:10;;;;;;;;;;;;;;;14.92;50.30;99966.03;10262693;29;19930;-75
2023/01/01 05:10:12;;;;;;;;;;;;;;;14.84;50.38;99963.81;10259865;29;19974;-75
2023/01/01 05:15:15;;;;;;;;;;;;;;;14.73;50.52;99972.25;10260671;29;19927;-75
2023/01/01 05:20:17;;;;;;;;;;;;;;;14.82;50.22;99968.31;10261181;29;20372;-75
2023/01/01 05:25:18;;;;;;;;;;;;;;;14.83;50.19;99975.31;10260781;29;19926;-75
2023/01/01 05:30:20;;;;;;;;;;;;;;;15.13;49.23;99971.09;10259269;29;20395;-75
2023/01/01 05:35:21;;;;;;;;;;;;;;;15.13;49.41;99971.09;10260913;29;19922;-74
2023/01/01 05:40:27;;;;;;;;;;;;;;;15.25;48.91;99972.25;10260248;29;19953;-75
2023/01/01 05:45:29;;;;;;;;;;;;;;;15.01;49.59;99979.69;10263741;29;20021;-75
2023/01/01 05:50:30;;;;;;;;;;;;;;;14.97;49.50;99979.94;10259966;29;20363;-74
2023/01/01 05:55:32;;;;;;;;;;;;;;;15.22;48.71;99975.06;10260479;29;19922;-75
2023/01/01 06:00:33;;;;;;;;;;;;;;;15.26;48.44;99978.41;10257905;29;19929;-75
2023/01/01 06:05:35;;;;;;;;;;;;;;;15.32;48.49;99984.25;10260116;29;19928;-75
2023/01/01 06:10:36;;;;;;;;;;;;;;;15.16;49.44;99982.47;10258333;28;19949;-75
2023/01/01 06:15:38;;;;;;;;;;;;;;;15.22;48.85;99985.66;10259901;29;20400;-74
2023/01/01 06:20:40;;;;;;;;;;;;;;;15.32;49.21;99984.25;10258316;29;19930;-75
2023/01/01 06:25:41;;;;;;;;;;;;;;;15.30;48.82;99995.84;10258287;29;19930;-75
2023/01/01 06:30:43;;;;;;;;;;;;;;;15.30;49.43;99995.84;10261593;29;19929;-75
2023/01/01 06:35:44;;;;;;;;;;;;;;;15.29;49.45;99992.34;10259910;29;20436;-75
2023/01/01 06:41:03;;;;;;;;;;;;;;;15.32;49.37;99988.72;10259470;28;19926;-75
2023/01/01 06:46:05;;;;;;;;;;;;;;;15.20;50.18;99995.47;10259151;29;19954;-75
2023/01/01 06:51:08;;;;;;;;;;;;;;;15.42;49.74;100008.47;10260087;28;19926;-74
2023/01/01 06:56:10;;;;;;;;;;;;;;;15.47;50.00;100009.09;10259661;29;19929;-74
2023/01/01 07:01:19;;;;;;;;;;;;;;;15.44;50.27;100025.13;10257455;29;20383;-74
2023/01/01 07:06:21;;;;;;;;;;;;;;;15.39;50.57;100035.97;10257648;29;19930;-74
2023/01/01 07:11:23;;;;;;;;;;;;;;;15.45;50.95;100029.50;10259627;29;19922;-74
2023/01/01 07:16:24;;;;;;;;;;;;;;;15.43;50.69;100028.72;10257738;29;20424;-75
2023/01/01 07:21:29;;;;;;;;;;;;;;;15.22;51.37;100051.00;10256539;28;19923;-74
2023/01/01 07:26:31;;;;;;;;;;;;;;;15.29;51.58;100044.47;10257788;29;20308;-74
2023/01/01 07:31:34;;;;;;;;;;;;;;;15.44;51.35;100051.63;10256164;29;19922;-75
2023/01/01 07:36:36;;;;;;;;;;;;;;;15.48;51.66;100068.22;10257658;29;19930;-74
2023/01/01 07:41:37;;;;;;;;;;;;;;;15.41;51.63;100080.94;10254672;29;19926;-75
2023/01/01 07:46:39;;;;;;;;;;;;;;;15.56;51.22;100089.88;10254504;29;19926;-75
2023/01/01 07:51:40;;;;;;;;;;;;;;;15.60;51.14;100100.22;10255766;29;19922;-75
2023/01/01 07:56:42;;;;;;;;;;;;;;;15.61;50.57;100104.59;10258255;29;19923;-76
2023/01/01 08:01:43;;;;;;;;;;;;;;;15.61;51.12;100122.28;10254027;29;19922;-76
2023/01/01 08:06:45;;;;;;;;;;;;;;;15.60;51.12;100139.97;10255633;29;19970;-75
2023/01/01 08:11:47;;;;;;;;;;;;;;;15.63;50.80;100139.84;10255089;29;19926;-74
2023/01/01 08:16:48;;;;;;;;;;;;;;;15.54;51.01;100142.94;10257376;29;19922;-75
2023/01/01 08:21:50;;;;;;;;;;;;;;;15.76;49.95;100141.88;10255574;28;19922;-75
2023/01/01 08:26:51;;;;;;;;;;;;;;;15.66;50.51;100124.72;10255774;28;19927;-73
2023/01/01 08:31:53;;;;;;;;;;;;;;;15.68;50.27;100125.53;10256297;29;19932;-75
2023/01/01 08:36:55;;;;;;;;;;;;;;;15.84;49.45;100137.88;10261943;28;19926;-74
2023/01/01 08:41:57;;;;;;;;;;;;;;;15.96;48.87;100149.66;10265446;29;19926;-75
2023/01/01 08:47:14;;;;;;;;;;;;;;;15.91;48.76;100145.53;10261896;29;19922;-75
2023/01/01 08:52:16;;;;;;;;;;;;;;;16.05;48.62;100158.94;10260628;29;19954;-75
2023/01/01 08:57:17;;;;;;;;;;;;;;;16.14;48.48;100138.06;10262803;29;19968;-75
2023/01/01 09:02:19;;;;;;;;;;;;;;;16.12;48.58;100145.28;10264040;29;19974;-74
2023/01/01 09:07:21;;;;;;;;;;;;;;;16.35;47.48;100164.41;10262956;29;19923;-75
2023/01/01 09:12:22;;;;;;;;;;;;;;;16.26;47.87;100178.16;10263490;29;19922;-75
2023/01/01 09:17:24;;;;;;;;;;;;;;;16.42;47.28;100184.34;10264834;29;19922;-76
2023/01/01 09:22:26;;;;;;;;;;;;;;;16.39;47.14;100203.97;10263655;29;19929;-75
2023/01/01 09:27:27;;;;;;;;;;;;;;;16.37;47.71;100212.91;10261314;29;19934;-75
2023/01/01 09:32:29;;;;;;;;;;;;;;;16.37;47.42;100210.28;10261101;28;19986;-75
2023/01/01 09:37:30;;;;;;;;;;;;;;;16.47;47.09;100207.97;10259120;29;19944;-74
2023/01/01 09:42:44;;;;;;;;;;;;;;;16.34;47.81;100205.16;10260997;29;20355;-75
2023/01/01 09:47:46;;;;;;;;;;;;;;;16.44;47.61;100194.91;10261044;28;20327;-74
2023/01/01 09:52:54;;;;;;;;;;;;;;;16.39;47.33;100188.03;10260766;29;19922;-74
2023/01/01 09:57:56;;;;;;;;;;;;;;;16.58;46.81;100189.69;10243387;29;19926;-74
2023/01/01 10:03:06;;;;;;;;;;;;;;;16.83;46.07;100189.25;10259421;28;19933;-75
2023/01/01 10:08:27;;;;;;;;;;;;;;;16.88;46.15;100200.47;10264108;29;20017;-74
2023/01/01 10:13:35;;;;;;;;;;;;;;;16.93;46.32;100206.38;10260789;28;20448;-75
2023/01/01 10:18:38;;;;;;;;;;;;;;;16.94;45.97;100208.09;10259853;29;20467;-75
2023/01/01 10:23:48;;;;;;;;;;;;;;;17.08;45.46;100197.56;10259779;28;20010;-75
2023/01/01 10:29:00;;;;;;;;;;;;;;;17.09;45.47;100201.09;10262317;29;19929;-75
2023/01/01 10:34:07;;;;;;;;;;;;;;;17.03;45.85;100222.66;10259820;28;19922;-74
2023/01/01 10:39:16;;;;;;;;;;;;;;;16.95;46.22;100231.03;10218444;29;19927;-75
2023/01/01 10:44:25;;;;;;;;;;;;;;;17.16;45.79;100207.75;10220218;29;20373;-75
2023/01/01 10:49:27;;;;;;;;;;;;;;;16.96;46.19;100202.72;10221953;29;19954;-75
2023/01/01 10:54:36;;;;;;;;;;;;;;;17.13;45.90;100198.19;10218359;29;20377;-75
2023/01/01 10:59:40;;;;;;;;;;;;;;;17.10;46.16;100206.31;10218173;29;19926;-75
2023/01/01 11:04:44;;;;;;;;;;;;;;;17.30;45.60;100201.66;10219491;29;19923;-74
2023/01/01 11:09:47;;;;;;;;;;;;;;;17.44;45.29;100220.31;10231347;29;19929;-74
2023/01/01 11:15:04;;;;;;;;;;;;;;;17.53;44.86;100216.28;10259862;28;19926;-75
2023/01/01 11:20:16;;;;;;;;;;;;;;;17.69;44.38;100198.50;10257597;29;19922;-75
2023/01/01 11:25:20;;;;;;;;;;;;;;;18.06;43.00;100218.50;10257536;29;19926;-75
2023/01/01 11:30:23;;;;;;;;;;;;;;;18.07;42.87;100200.75;10256786;29;19922;-74
2023/01/01 11:35:26;;;;;;;;;;;;;;;17.92;43.07;100189.19;10257392;28;19946;-74
2023/01/01 11:40:32;;;;;;;;;;;;;;;17.81;43.39;100181.88;10256206;29;19926;-74
2023/01/01 11:45:37;;;;;;;;;;;;;;;17.70;43.43;100172.78;10256384;29;20367;-77
2023/01/01 11:50:40;;;;;;;;;;;;;;;17.57;44.34;100175.28;10253438;29;19926;-75
2023/01/01 11:55:44;;;;;;;;;;;;;;;17.84;43.57;100168.41;10255869;28;20034;-74
2023/01/01 12:00:51;;;;;;;;;;;;;;;17.88;43.57;100175.25;10254429;29;19929;-75
2023/01/01 12:06:09;;;;;;;;;;;;;;;17.77;43.55;100172.34;10253007;29;19926;-77
2023/01/01 12:11:24;;;;;;;;;;;;;;;17.68;43.76;100182.66;10253289;29;19930;-75
2023/01/01 12:16:34;;;;;;;;;;;;;;;17.60;43.67;100183.09;10254446;29;19923;-75
2023/01/01 12:21:40;;;;;;;;;;;;;;;17.60;44.15;100161.84;10254625;29;19926;-75
2023/01/01 12:26:56;;;;;;;;;;;;;;;17.61;43.81;100161.72;10255180;29;19923;-75
2023/01/01 12:32:10;;;;;;;;;;;;;;;17.72;43.30;100186.84;10253867;29;19927;-75
2023/01/01 12:37:17;;;;;;;;;;;;;;;17.71;43.83;100175.38;10254470;29;19938;-75
2023/01/01 12:42:24;;;;;;;;;;;;;;;17.58;43.76;100177.03;10256597;29;19922;-74
2023/01/01 12:47:38;;;;;;;;;;;;;;;17.57;43.77;100180.59;10254352;29;19957;-75
2023/01/01 12:52:48;;;;;;;;;;;;;;;17.52;44.58;100166.75;10252850;29;20005;-75
2023/01/01 12:57:50;;;;;;;;;;;;;;;17.50;44.20;100164.19;10254227;29;20300;-76
2023/01/01 13:02:55;;;;;;;;;;;;;;;17.38;44.55;100149.78;10255669;29;20373;-75
2023/01/01 13:07:59;;;;;;;;;;;;;;;17.46;44.59;100151.16;10252920;29;20295;-75
2023/01/01 13:13:01;;;;;;;;;;;;;;;17.43;44.58;100151.31;10254506;29;19922;-76
2023/01/01 13:18:15;;;;;;;;;;;;;;;17.27;45.07;100148.72;10252215;29;19922;-75
2023/01/01 13:23:40;;;;;;;;;;;;;;;17.31;44.98;100148.47;10262012;28;19969;-76
2023/01/01 13:28:41;;;;;;;;;;;;;;;17.11;45.84;100159.34;10254719;29;20269;-75
2023/01/01 13:33:43;;;;;;;;;;;;;;;16.97;46.41;100152.16;10259225;29;20432;-75
2023/01/01 13:38:44;;;;;;;;;;;;;;;16.87;46.76;100167.75;10258770;29;20380;-76
2023/01/01 13:43:46;;;;;;;;;;;;;;;17.03;46.09;100174.84;10259960;29;19922;-76
2023/01/01 13:48:48;;;;;;;;;;;;;;;16.90;46.97;100182.66;10260215;29;19938;-76
2023/01/01 13:53:49;;;;;;;;;;;;;;;16.57;47.04;100180.88;10259078;29;19929;-76
2023/01/01 13:58:51;;;;;;;;;;;;;;;16.70;46.94;100185.53;10259080;29;20369;-76
2023/01/01 14:03:54;;;;;;;;;;;;;;;16.58;47.37;100203.81;10258854;29;20377;-76
2023/01/01 14:09:16;;;;;;;;;;;;;;;16.73;46.92;100211.91;10262297;29;20009;-75
2023/01/01 14:14:23;;;;;;;;;;;;;;;16.49;47.92;100225.53;10259088;29;19926;-75
2023/01/01 14:19:26;;;;;;;;;;;;;;;16.38;48.05;100238.53;10258472;29;20297;-75
2023/01/01 14:24:27;;;;;;;;;;;;;;;16.20;48.55;100242.97;10257076;29;19922;-75
2023/01/01 14:29:30;;;;;;;;;;;;;;;15.87;49.34;100253.53;10259157;29;20013;-75
2023/01/01 14:34:33;;;;;;;;;;;;;;;15.66;50.17;100252.78;10256695;28;19922;-75
2023/01/01 14:39:36;;;;;;;;;;;;;;;15.71;50.15;100268.47;10257243;28;19923;-75
2023/01/01 14:44:48;;;;;;;;;;;;;;;15.49;50.84;100271.25;10240961;29;19946;-75
2023/01/01 14:49:52;;;;;;;;;;;;;;;15.16;51.83;100281.69;10256993;29;19929;-75
2023/01/01 14:54:56;;;;;;;;;;;;;;;14.99;52.73;100280.66;10259460;29;19922;-75
2023/01/01 14:59:57;;;;;;;;;;;;;;;14.79;53.44;100283.38;10256847;29;19926;-75
2023/01/01 15:05:13;;;;;;;;;;;;;;;14.66;54.27;100279.56;10257148;29;19922;-75
2023/01/01 15:10:15;;;;;;;;;;;;;;;14.39;55.22;100282.47;10256941;29;20025;-76
2023/01/01 15:15:32;;;;;;;;;;;;;;;14.27;55.97;100290.91;10256980;29;19923;-76
2023/01/01 15:20:34;;;;;;;;;;;;;;;14.22;55.98;100290.25;10256290;29;19926;-75
2023/01/01 15:25:40;;;;;;;;;;;;;;;14.14;56.68;100280.84;10256333;29;20413;-75
2023/01/01 15:30:42;;;;;;;;;;;;;;;14.18;56.31;100275.44;10256134;29;19930;-76
2023/01/01 15:40:56;;;;;;;7.53;2.55;;;;;;;14.37;55.13;100274.56;10566322;28;20121;-77
2023/01/01 15:46:14;;;;;;;7.07;3.15;;;;;;;14.35;55.26;100279.09;10562407;28;20052;-76
2023/01/01 15:51:23;;;;;;;4.45;3.03;;;;;;;14.27;55.85;100282.97;10542419;22;20037;-80
2023/01/01 15:56:28;;;;;;;6.70;3.35;;;;;;;14.18;55.96;100296.59;10519631;28;20041;-78
2023/01/01 16:01:32;;;;;;;7.10;3.78;;;;;;;14.04;56.50;100297.19;10510406;28;20051;-80
2023/01/01 16:06:43;;;;;;;10.02;4.50;;;;;;;13.97;56.63;100301.00;10510957;28;20090;-79
2023/01/01 16:11:50;;;;;;;7.90;4.13;;;;;;;13.95;56.89;100300.22;10513686;28;20048;-79
2023/01/01 16:16:59;;;;;;;5.88;4.68;;;;;;;13.89;57.53;100302.16;10518577;28;20486;-79
2023/01/01 16:22:01;;;;;;;8.60;3.45;;;;;;;13.99;56.97;100301.78;10515151;28;20136;-80
2023/01/01 16:27:03;;;;;;;5.78;3.40;;;;;;;14.12;56.61;100295.94;10516802;28;20079;-82
2023/01/01 16:32:05;;;;;;;9.30;3.65;;;;;;;14.13;56.68;100287.06;10514110;28;20413;-81
2023/01/01 16:37:06;;;;;;;7.65;4.25;;;;;;;14.13;56.51;100302.94;10508884;28;20067;-82
2023/01/01 16:42:12;;;;;;;10.25;6.95;;;;;;;14.17;56.57;100290.47;10512046;28;20112;-81
2023/01/01 16:47:14;;;;;;;7.45;3.85;;;;;;;14.29;55.86;100286.41;10508574;28;20128;-80
2023/01/01 16:52:16;;;;;;;6.82;3.22;;;;;;;14.38;55.51;100292.16;10481723;28;20055;-80
2023/01/01 16:57:17;;;;;;;5.85;3.60;;;;;;;14.30;55.64;100293.44;10489017;28;20061;-79
2023/01/01 17:02:19;;;;;;;10.18;4.05;;;;;;;14.59;54.47;100287.75;10507841;28;20033;-80
2023/01/01 17:07:21;;;;;;;9.93;4.65;;;;;;;14.37;55.51;100297.53;10513282;28;20085;-81
2023/01/01 17:12:23;;;;;;;6.97;4.28;;;;;;;14.25;55.51;100295.41;10513399;28;20025;-81
2023/01/01 17:17:24;;;;;;;5.47;3.80;;;;;;;14.11;56.16;100304.78;10513079;28;20052;-79
2023/01/01 17:22:26;;;;;;;6.97;3.15;;;;;;;14.14;56.21;100295.88;10511857;28;20048;-80
2023/01/01 17:27:35;;;;;;;6.07;2.42;;;;;;;14.33;55.13;100282.72;10499624;28;20506;-79
2023/01/01 17:32:37;;;;;;;4.60;3.15;;;;;;;14.33;54.94;100290.63;10495973;28;20124;-82
2023/01/01 17:37:39;;;;;;;6.20;3.03;;;;;;;14.42;54.51;100292.88;10496358;28;20033;-78
2023/01/01 17:42:40;;;;;;;7.97;2.88;;;;;;;14.48;54.08;100287.38;10498579;28;20076;-81
2023/01/01 17:47:42;;;;;;;6.85;2.97;;;;;;;14.50;54.22;100279.38;10498154;28;20463;-80
2023/01/01 17:52:44;;;;;;;6.05;3.08;;;;;;;14.57;53.85;100270.25;10497184;28;20379;-81
2023/01/01 17:57:45;;;;;;;6.55;3.20;;;;;;;14.46;54.25;100289.19;10493937;28;20087;-81
2023/01/01 18:02:47;;;;;;;6.53;3.08;;;;;;;14.65;54.04;100289.25;10500358;28;20066;-81
2023/01/01 18:07:50;;;;;;;7.45;3.78;;;;;;;14.40;54.64;100305.34;10499418;28;20093;-79
2023/01/01 18:12:54;;;;;;;7.07;2.28;;;;;;;14.47;54.25;100309.41;10492286;28;20055;-80
2023/01/01 18:17:56;;;;;;;6.28;2.17;;;;;;;14.50;54.26;100301.38;10483299;28;20052;-81
2023/01/01 18:23:05;;;;;;;7.03;2.58;;;;;;;14.20;55.31;100303.53;10478792;28;20067;-82
2023/01/01 18:28:32;;;;;;;6.47;2.95;;;;;;;14.26;55.19;100310.34;10475240;28;20041;-80
2023/01/01 18:33:34;;;;;;;10.68;3.53;;;;;;;14.28;55.22;100316.44;10478947;28;20045;-80
2023/01/01 18:38:36;;;;;;;5.47;3.55;;;;;;;14.21;55.36;100309.66;10481835;28;20097;-82
2023/01/01 18:43:37;;;;;;;6.97;3.08;;;;;;;14.19;55.53;100319.47;10486466;28;20052;-80
2023/01/01 18:48:41;;;;;;;5.13;3.22;;;;;;;14.14;55.37;100317.88;10486773;28;20087;-81
2023/01/01 18:53:43;;;;;;;4.68;2.63;;;;;;;14.29;55.05;100313.72;10484114;28;20045;-83
2023/01/01 18:58:48;;;;;;;5.55;2.92;;;;;;;14.05;56.29;100312.97;10485019;28;20064;-81
2023/01/01 19:03:55;;;;;;;5.40;2.95;;;;;;;14.02;56.53;100310.44;10484424;28;20102;-82
2023/01/01 19:09:24;;;;;;;7.00;2.78;;;;;;;13.95;56.97;100294.94;10481785;28;20045;-82
2023/01/01 19:14:29;;;;;;;5.18;3.40;;;;;;;13.74;57.55;100301.94;10473568;28;20062;-83
2023/01/01 19:19:37;;;;;;;6.70;4.00;;;;;;;13.58;58.19;100302.53;10487978;28;20021;-81
2023/01/01 19:24:41;;;;;;;7.65;3.42;;;;;;;13.48;58.76;100297.69;10497341;28;20033;-82
2023/01/01 19:29:46;;;;;;;4.97;3.88;;;;;;;13.44;58.63;100304.88;10497356;28;20036;-83
2023/01/01 19:34:48;;;;;;;9.13;4.75;;;;;;;13.48;58.55;100305.63;10491647;28;20049;-81
2023/01/01 19:39:50;;;;;;;5.80;4.93;;;;;;;13.55;58.52;100300.03;10465894;28;20059;-79
2023/01/01 19:44:53;;;;;;;7.65;4.90;;;;;;;13.56;58.24;100293.84;10483856;28;20052;-80
2023/01/01 19:49:55;;;;;;;7.65;4.75;;;;;;;13.55;58.44;100300.03;10475857;28;20052;-83
2023/01/01 19:54:57;;;;;;;8.82;3.08;;;;;;;13.67;57.59;100296.03;10493646;28;20049;-83
2023/01/01 19:59:58;;;;;;;7.50;3.38;;;;;;;13.83;57.20;100297.13;10493015;28;20045;-81
2023/01/01 20:05:00;;;;;;;4.97;3.38;;;;;;;13.94;57.22;100290.53;10481950;28;20421;-82
2023/01/01 20:10:02;;;;;;;5.35;4.22;;;;;;;13.91;57.08;100288.06;10467633;28;20075;-81
2023/01/01 20:15:04;;;;;;;4.78;3.55;;;;;;;13.91;57.56;100280.97;10468405;28;20457;-83
2023/01/01 20:20:07;;;;;;;8.20;4.47;;;;;;;13.69;58.33;100278.34;10468644;28;20041;-82
2023/01/01 20:25:09;;;;;;;6.63;4.20;;;;;;;13.42;59.26;100267.13;10473652;28;20053;-84
2023/01/01 20:30:11;;;;;;;7.57;3.83;;;;;;;13.32;59.43;100273.66;10475932;28;20091;-82
2023/01/01 20:35:13;;;;;;;8.60;3.55;;;;;;;13.18;60.18;100268.88;10476689;28;20047;-83
2023/01/01 20:40:14;;;;;;;6.70;4.03;;;;;;;13.14;60.20;100260.22;10478161;28;20453;-83
2023/01/01 20:45:16;;;;;;;4.90;3.03;;;;;;;13.14;60.30;100262.88;10477215;28;20080;-83
2023/01/01 20:50:18;;;;;;;7.30;3.03;;;;;;;13.18;59.98;100258.34;10457967;28;20562;-83
2023/01/01 20:55:19;;;;;;;5.50;3.05;;;;;;;13.13;60.36;100253.22;10478972;28;20076;-82
2023/01/01 21:00:21;;;;;;;5.60;2.50;;;;;;;13.17;60.11;100253.13;10482665;28;20572;-80
2023/01/01 21:05:23;;;;;;;5.47;3.72;;;;;;;13.34;59.50;100253.34;10497484;28;20090;-80
2023/01/01 21:10:24;;;;;;;6.75;3.63;;;;;;;13.40;59.60;100249.59;10472652;28;20112;-81
2023/01/01 21:15:26;;;;;;;6.80;4.15;;;;;;;13.32;60.50;100245.47;10484530;28;20051;-80
2023/01/01 21:20:34;;;;;;;6.45;3.83;;;;;;;13.29;60.94;100226.28;10476480;28;20041;-82
2023/01/01 21:25:37;;;;;;;6.25;3.53;;;;;;;13.29;60.42;100227.13;10475564;28;20045;-82
2023/01/01 21:30:55;;;;;;;5.77;3.90;;;;;;;13.32;60.13;100226.13;10480924;28;20041;-81
2023/01/01 21:36:04;;;;;;;6.37;3.60;;;;;;;13.12;60.47;100213.72;10492647;28;20048;-79
2023/01/01 21:41:15;;;;;;;5.70;4.75;;;;;;;13.05;61.23;100210.44;10485411;28;20112;-81
2023/01/01 21:46:41;;;;;;;8.55;3.75;;;;;;;12.93;61.42;100200.38;10452551;28;20494;-82
2023/01/01 21:51:53;;;;;;;4.78;3.30;;;;;;;12.89;61.87;100193.50;10456134;23;20069;-84
2023/01/01 21:56:59;;;;;;;6.85;3.75;;;;;;;12.78;62.00;100195.69;10453480;28;20097;-84
2023/01/01 22:02:04;;;;;;;6.47;3.40;;;;;;;12.66;62.61;100196.13;10455153;28;20041;-84
2023/01/01 22:07:32;;;;;;;5.55;4.05;;;;;;;12.90;62.22;100181.16;10450724;28;20095;-84
2023/01/01 22:12:59;;;;;;;7.55;4.20;;;;;;;12.77;62.47;100183.41;10448619;28;20042;-84
2023/01/01 22:18:00;;;;;;;5.72;4.18;;;;;;;13.01;62.12;100181.59;10447666;28;20038;-85
2023/01/01 22:23:15;;;;;;;6.18;4.15;;;;;;;12.80;62.53;100180.69;10437974;28;20056;-83
2023/01/01 22:28:22;;;;;;;6.15;4.07;;;;;;;12.61;63.27;100185.78;10421606;28;20064;-84
2023/01/01 22:33:45;;;;;;;5.63;4.18;;;;;;;12.31;64.69;100175.47;10442170;28;20076;-84
2023/01/01 22:38:47;;;;;;;6.93;4.10;;;;;;;12.26;65.42;100160.72;10449694;28;20073;-83
2023/01/01 22:43:52;;;;;;;6.55;5.13;;;;;;;12.26;65.92;100164.25;10438388;28;20056;-84
2023/01/01 22:48:58;;;;;;;11.50;5.13;;;;;;;12.18;66.27;100158.38;10429927;28;20117;-84
2023/01/01 22:54:00;;;;;;;7.80;5.28;;;;;;;12.28;66.03;100166.81;10443152;28;20045;-84
2023/01/01 22:59:02;;;;;;;7.18;5.50;;;;;;;12.30;66.43;100152.63;10441227;28;20101;-84
2023/01/01 23:04:04;;;;;;;8.38;4.97;;;;;;;12.09;67.25;100150.81;10437529;28;20041;-82
2023/01/01 23:09:07;;;;;;;6.97;4.85;;;;;;;11.91;67.87;100141.78;10441536;28;20109;-84
2023/01/01 23:19:49;;;;;;;7.63;5.53;;;;;;;11.90;68.26;100139.19;10437954;28;20041;-85
2023/01/01 23:24:52;;;;;;;10.23;5.45;;;;;;;11.89;68.53;100130.44;10437254;28;20076;-85
2023/01/01 23:29:54;;;;;;;8.43;5.63;;;;;;;11.91;68.95;100133.88;10419925;28;20080;-85
2023/01/01 23:34:56;;;;;;;7.72;5.07;;;;;;;12.09;69.19;100117.41;10437069;28;20057;-85
2023/01/01 23:39:57;;;;;;;7.22;5.05;;;;;;;12.03;69.19;100112.34;10424732;28;20068;-85
2023/01/01 23:44:59;;;;;;;6.10;5.32;;;;;;;11.97;69.95;100114.38;10448859;28;20100;-82
2023/01/01 23:50:05;;;;;;;7.38;5.47;;;;;;;11.78;70.19;100106.22;10465757;28;20037;-83
2023/01/01 23:55:07;;;;;;;5.78;5.07;;;;;;;11.69;70.73;100107.41;10466452;28;20038;-80
